sensor_id;sensor_type;location;lat;lon;timestamp;pressure;altitude;pressure_sealevel;temperature;humidity
76594;BME280;65482;50.240;14.302;2023-11-22T00:02:22;99982.72;;;2.49;65.63
76594;BME280;65482;50.240;14.302;2023-11-22T00:04:47;99986.91;;;2.51;65.52
76594;BME280;65482;50.240;14.302;2023-11-22T00:07:13;99996.09;;;2.43;65.53
76594;BME280;65482;50.240;14.302;2023-11-22T00:09:38;99993.81;;;2.38;65.36
76594;BME280;65482;50.240;14.302;2023-11-22T00:12:04;99992.97;;;2.37;65.34
76594;BME280;65482;50.240;14.302;2023-11-22T00:14:31;99989.41;;;2.38;64.97
76594;BME280;65482;50.240;14.302;2023-11-22T00:16:57;99994.91;;;2.34;65.01
76594;BME280;65482;50.240;14.302;2023-11-22T00:19:22;99990.56;;;2.20;65.04
76594;BME280;65482;50.240;14.302;2023-11-22T00:21:49;99998.84;;;2.27;65.29
76594;BME280;65482;50.240;14.302;2023-11-22T00:24:14;99996.22;;;2.27;65.52
76594;BME280;65482;50.240;14.302;2023-11-22T00:26:40;100005.34;;;2.34;65.31
76594;BME280;65482;50.240;14.302;2023-11-22T00:29:06;100009.72;;;2.33;65.58
76594;BME280;65482;50.240;14.302;2023-11-22T00:31:32;100006.56;;;2.28;65.52
76594;BME280;65482;50.240;14.302;2023-11-22T00:33:58;100013.16;;;2.34;65.67
76594;BME280;65482;50.240;14.302;2023-11-22T00:36:23;100005.72;;;2.28;66.39
76594;BME280;65482;50.240;14.302;2023-11-22T00:38:49;100005.91;;;2.25;65.38
76594;BME280;65482;50.240;14.302;2023-11-22T00:41:15;100016.91;;;2.15;65.08
76594;BME280;65482;50.240;14.302;2023-11-22T00:43:41;100022.94;;;2.16;65.26
76594;BME280;65482;50.240;14.302;2023-11-22T00:46:06;100026.28;;;2.18;65.09
76594;BME280;65482;50.240;14.302;2023-11-22T00:48:32;100023.50;;;2.21;65.50
76594;BME280;65482;50.240;14.302;2023-11-22T00:50:58;100028.50;;;2.24;64.92
76594;BME280;65482;50.240;14.302;2023-11-22T00:53:23;100029.53;;;2.22;65.01
76594;BME280;65482;50.240;14.302;2023-11-22T00:55:49;100019.03;;;2.23;64.80
76594;BME280;65482;50.240;14.302;2023-11-22T00:58:14;100030.91;;;2.13;64.23
76594;BME280;65482;50.240;14.302;2023-11-22T01:00:40;100033.25;;;2.17;64.94
76594;BME280;65482;50.240;14.302;2023-11-22T01:03:06;100025.50;;;2.30;64.49
76594;BME280;65482;50.240;14.302;2023-11-22T01:05:34;100029.81;;;2.17;64.62
76594;BME280;65482;50.240;14.302;2023-11-22T01:07:59;100022.56;;;2.22;64.41
76594;BME280;65482;50.240;14.302;2023-11-22T01:10:25;100017.34;;;2.22;64.67
76594;BME280;65482;50.240;14.302;2023-11-22T01:12:50;100008.88;;;2.18;64.50
76594;BME280;65482;50.240;14.302;2023-11-22T01:15:16;100034.16;;;2.16;64.71
76594;BME280;65482;50.240;14.302;2023-11-22T01:17:42;100036.28;;;2.38;64.33
76594;BME280;65482;50.240;14.302;2023-11-22T01:20:08;100035.66;;;2.35;63.68
76594;BME280;65482;50.240;14.302;2023-11-22T01:22:35;100040.38;;;2.43;64.38
76594;BME280;65482;50.240;14.302;2023-11-22T01:25:03;100041.22;;;2.43;63.60
76594;BME280;65482;50.240;14.302;2023-11-22T01:27:29;100042.88;;;2.44;63.75
76594;BME280;65482;50.240;14.302;2023-11-22T01:29:55;100051.53;;;2.45;63.89
76594;BME280;65482;50.240;14.302;2023-11-22T01:32:22;100048.19;;;2.43;63.68
76594;BME280;65482;50.240;14.302;2023-11-22T01:34:48;100059.44;;;2.43;63.09
76594;BME280;65482;50.240;14.302;2023-11-22T01:37:13;100047.34;;;2.42;63.89
76594;BME280;65482;50.240;14.302;2023-11-22T01:39:40;100058.72;;;2.41;63.03
76594;BME280;65482;50.240;14.302;2023-11-22T01:42:08;100059.84;;;2.37;63.37
76594;BME280;65482;50.240;14.302;2023-11-22T01:44:35;100060.47;;;2.41;62.86
76594;BME280;65482;50.240;14.302;2023-11-22T01:47:01;100055.53;;;2.36;63.24
76594;BME280;65482;50.240;14.302;2023-11-22T01:49:29;100058.22;;;2.34;62.71
76594;BME280;65482;50.240;14.302;2023-11-22T01:51:55;100055.47;;;2.37;63.43
76594;BME280;65482;50.240;14.302;2023-11-22T01:54:22;100063.25;;;2.37;62.51
76594;BME280;65482;50.240;14.302;2023-11-22T01:56:48;100065.03;;;2.37;62.68
76594;BME280;65482;50.240;14.302;2023-11-22T01:59:14;100054.06;;;2.17;62.01
76594;BME280;65482;50.240;14.302;2023-11-22T02:01:40;100066.44;;;2.14;62.40
76594;BME280;65482;50.240;14.302;2023-11-22T02:04:06;100075.81;;;2.16;62.56
76594;BME280;65482;50.240;14.302;2023-11-22T02:06:32;100072.28;;;2.17;62.45
76594;BME280;65482;50.240;14.302;2023-11-22T02:08:58;100077.31;;;2.06;62.67
76594;BME280;65482;50.240;14.302;2023-11-22T02:11:23;100081.97;;;2.15;62.41
76594;BME280;65482;50.240;14.302;2023-11-22T02:13:50;100099.59;;;2.10;62.28
76594;BME280;65482;50.240;14.302;2023-11-22T02:16:16;100100.63;;;2.08;62.49
76594;BME280;65482;50.240;14.302;2023-11-22T02:18:49;100098.28;;;1.89;62.80
76594;BME280;65482;50.240;14.302;2023-11-22T02:21:17;100100.25;;;1.99;62.62
76594;BME280;65482;50.240;14.302;2023-11-22T02:23:42;100106.50;;;1.97;62.23
76594;BME280;65482;50.240;14.302;2023-11-22T02:26:08;100095.06;;;1.99;61.71
76594;BME280;65482;50.240;14.302;2023-11-22T02:28:34;100106.50;;;1.97;61.85
76594;BME280;65482;50.240;14.302;2023-11-22T02:30:59;100111.41;;;2.02;62.30
76594;BME280;65482;50.240;14.302;2023-11-22T02:33:25;100113.34;;;1.98;62.18
76594;BME280;65482;50.240;14.302;2023-11-22T02:35:50;100121.00;;;2.01;62.62
76594;BME280;65482;50.240;14.302;2023-11-22T02:38:16;100117.91;;;2.09;62.18
76594;BME280;65482;50.240;14.302;2023-11-22T02:40:43;100130.28;;;2.05;62.27
76594;BME280;65482;50.240;14.302;2023-11-22T02:43:09;100129.72;;;2.00;62.82
76594;BME280;65482;50.240;14.302;2023-11-22T02:45:36;100123.19;;;1.93;63.69
76594;BME280;65482;50.240;14.302;2023-11-22T02:48:02;100125.53;;;1.97;63.09
76594;BME280;65482;50.240;14.302;2023-11-22T02:50:29;100128.31;;;1.94;63.46
76594;BME280;65482;50.240;14.302;2023-11-22T02:52:58;100132.41;;;1.98;63.12
76594;BME280;65482;50.240;14.302;2023-11-22T02:55:24;100139.47;;;1.96;63.41
76594;BME280;65482;50.240;14.302;2023-11-22T02:57:50;100141.81;;;2.01;63.06
76594;BME280;65482;50.240;14.302;2023-11-22T03:00:16;100149.94;;;1.95;63.10
76594;BME280;65482;50.240;14.302;2023-11-22T03:02:45;100149.13;;;1.94;63.12
76594;BME280;65482;50.240;14.302;2023-11-22T03:05:12;100148.75;;;2.01;64.16
76594;BME280;65482;50.240;14.302;2023-11-22T03:07:38;100149.34;;;2.06;63.75
76594;BME280;65482;50.240;14.302;2023-11-22T03:10:04;100153.34;;;2.11;63.31
76594;BME280;65482;50.240;14.302;2023-11-22T03:12:30;100158.41;;;1.98;63.68
76594;BME280;65482;50.240;14.302;2023-11-22T03:14:56;100164.88;;;2.07;63.51
76594;BME280;65482;50.240;14.302;2023-11-22T03:17:26;100168.38;;;2.06;63.42
76594;BME280;65482;50.240;14.302;2023-11-22T03:19:53;100177.75;;;1.94;63.99
76594;BME280;65482;50.240;14.302;2023-11-22T03:22:19;100172.19;;;2.01;62.41
76594;BME280;65482;50.240;14.302;2023-11-22T03:24:45;100176.09;;;2.08;62.21
76594;BME280;65482;50.240;14.302;2023-11-22T03:27:10;100171.56;;;2.11;62.91
76594;BME280;65482;50.240;14.302;2023-11-22T03:29:37;100181.59;;;2.03;61.69
76594;BME280;65482;50.240;14.302;2023-11-22T03:32:03;100179.63;;;2.07;61.35
76594;BME280;65482;50.240;14.302;2023-11-22T03:34:29;100176.84;;;2.10;61.14
76594;BME280;65482;50.240;14.302;2023-11-22T03:36:54;100188.00;;;2.12;61.73
76594;BME280;65482;50.240;14.302;2023-11-22T03:39:20;100194.88;;;2.13;61.49
76594;BME280;65482;50.240;14.302;2023-11-22T03:41:45;100202.81;;;2.11;61.44
76594;BME280;65482;50.240;14.302;2023-11-22T03:44:11;100209.88;;;2.09;62.29
76594;BME280;65482;50.240;14.302;2023-11-22T03:46:37;100205.03;;;2.17;61.91
76594;BME280;65482;50.240;14.302;2023-11-22T03:49:04;100207.81;;;2.14;62.01
76594;BME280;65482;50.240;14.302;2023-11-22T03:51:32;100216.72;;;2.10;62.58
76594;BME280;65482;50.240;14.302;2023-11-22T03:53:58;100209.56;;;1.99;62.05
76594;BME280;65482;50.240;14.302;2023-11-22T03:56:25;100217.09;;;2.04;62.88
76594;BME280;65482;50.240;14.302;2023-11-22T03:58:50;100223.50;;;1.83;62.05
76594;BME280;65482;50.240;14.302;2023-11-22T04:01:16;100223.44;;;1.84;61.67
76594;BME280;65482;50.240;14.302;2023-11-22T04:03:42;100234.78;;;1.83;61.79
76594;BME280;65482;50.240;14.302;2023-11-22T04:06:08;100241.72;;;1.83;62.07
76594;BME280;65482;50.240;14.302;2023-11-22T04:08:33;100229.34;;;1.72;62.55
76594;BME280;65482;50.240;14.302;2023-11-22T04:10:59;100234.50;;;1.88;62.29
76594;BME280;65482;50.240;14.302;2023-11-22T04:13:24;100233.31;;;1.93;62.04
76594;BME280;65482;50.240;14.302;2023-11-22T04:15:51;100234.91;;;1.96;61.66
76594;BME280;65482;50.240;14.302;2023-11-22T04:18:16;100234.25;;;1.92;62.09
76594;BME280;65482;50.240;14.302;2023-11-22T04:20:42;100226.06;;;1.98;61.82
76594;BME280;65482;50.240;14.302;2023-11-22T04:23:08;100234.50;;;1.88;62.09
76594;BME280;65482;50.240;14.302;2023-11-22T04:25:39;100231.84;;;1.73;62.26
76594;BME280;65482;50.240;14.302;2023-11-22T04:28:07;100227.25;;;1.63;62.71
76594;BME280;65482;50.240;14.302;2023-11-22T04:30:34;100236.53;;;1.83;63.04
76594;BME280;65482;50.240;14.302;2023-11-22T04:32:59;100258.47;;;1.93;62.17
76594;BME280;65482;50.240;14.302;2023-11-22T04:35:25;100266.72;;;2.01;61.84
76594;BME280;65482;50.240;14.302;2023-11-22T04:37:50;100269.41;;;1.99;62.17
76594;BME280;65482;50.240;14.302;2023-11-22T04:40:16;100278.31;;;1.95;62.26
76594;BME280;65482;50.240;14.302;2023-11-22T04:42:43;100275.63;;;1.97;62.02
76594;BME280;65482;50.240;14.302;2023-11-22T04:45:09;100280.84;;;1.97;62.61
76594;BME280;65482;50.240;14.302;2023-11-22T04:47:35;100283.84;;;1.89;62.92
76594;BME280;65482;50.240;14.302;2023-11-22T04:50:00;100277.91;;;1.71;63.11
76594;BME280;65482;50.240;14.302;2023-11-22T04:52:26;100292.59;;;1.72;63.63
76594;BME280;65482;50.240;14.302;2023-11-22T04:54:52;100298.06;;;1.52;64.76
76594;BME280;65482;50.240;14.302;2023-11-22T04:57:17;100298.19;;;1.49;64.57
76594;BME280;65482;50.240;14.302;2023-11-22T04:59:43;100304.84;;;1.54;64.42
76594;BME280;65482;50.240;14.302;2023-11-22T05:02:08;100301.00;;;1.46;64.88
76594;BME280;65482;50.240;14.302;2023-11-22T05:04:34;100306.94;;;1.64;63.96
76594;BME280;65482;50.240;14.302;2023-11-22T05:06:59;100318.03;;;1.67;64.19
76594;BME280;65482;50.240;14.302;2023-11-22T05:09:25;100310.63;;;1.59;64.07
76594;BME280;65482;50.240;14.302;2023-11-22T05:11:51;100315.41;;;1.51;63.63
76594;BME280;65482;50.240;14.302;2023-11-22T05:14:17;100323.03;;;1.54;64.53
76594;BME280;65482;50.240;14.302;2023-11-22T05:16:43;100322.88;;;1.57;64.16
76594;BME280;65482;50.240;14.302;2023-11-22T05:19:09;100328.06;;;1.42;65.19
76594;BME280;65482;50.240;14.302;2023-11-22T05:21:34;100331.31;;;1.45;65.32
76594;BME280;65482;50.240;14.302;2023-11-22T05:24:00;100335.53;;;1.32;65.36
76594;BME280;65482;50.240;14.302;2023-11-22T05:26:25;100344.28;;;1.29;65.56
76594;BME280;65482;50.240;14.302;2023-11-22T05:28:52;100353.66;;;1.33;66.10
76594;BME280;65482;50.240;14.302;2023-11-22T05:31:21;100357.66;;;1.39;65.38
76594;BME280;65482;50.240;14.302;2023-11-22T05:33:48;100365.88;;;1.47;64.75
76594;BME280;65482;50.240;14.302;2023-11-22T05:36:13;100371.41;;;1.41;64.96
76594;BME280;65482;50.240;14.302;2023-11-22T05:38:42;100372.63;;;1.18;64.56
76594;BME280;65482;50.240;14.302;2023-11-22T05:41:08;100377.47;;;1.08;64.73
76594;BME280;65482;50.240;14.302;2023-11-22T05:43:34;100376.44;;;1.11;64.64
76594;BME280;65482;50.240;14.302;2023-11-22T05:46:03;100380.25;;;1.21;64.66
76594;BME280;65482;50.240;14.302;2023-11-22T05:48:29;100378.41;;;1.23;64.47
76594;BME280;65482;50.240;14.302;2023-11-22T05:50:54;100374.06;;;1.24;65.20
76594;BME280;65482;50.240;14.302;2023-11-22T05:53:20;100385.06;;;1.29;65.25
76594;BME280;65482;50.240;14.302;2023-11-22T05:55:47;100381.56;;;1.30;65.34
76594;BME280;65482;50.240;14.302;2023-11-22T05:58:16;100383.97;;;1.33;65.09
76594;BME280;65482;50.240;14.302;2023-11-22T06:00:46;100383.06;;;1.34;65.41
76594;BME280;65482;50.240;14.302;2023-11-22T06:03:12;100391.44;;;1.39;65.05
76594;BME280;65482;50.240;14.302;2023-11-22T06:05:38;100390.28;;;1.45;64.59
76594;BME280;65482;50.240;14.302;2023-11-22T06:08:04;100393.72;;;1.45;64.10
76594;BME280;65482;50.240;14.302;2023-11-22T06:10:31;100401.00;;;1.38;64.50
76594;BME280;65482;50.240;14.302;2023-11-22T06:12:57;100408.50;;;1.45;64.68
76594;BME280;65482;50.240;14.302;2023-11-22T06:15:23;100400.19;;;1.38;64.56
76594;BME280;65482;50.240;14.302;2023-11-22T06:17:49;100396.91;;;1.34;63.96
76594;BME280;65482;50.240;14.302;2023-11-22T06:20:15;100393.41;;;1.35;63.77
76594;BME280;65482;50.240;14.302;2023-11-22T06:22:42;100402.84;;;1.36;64.13
76594;BME280;65482;50.240;14.302;2023-11-22T06:25:09;100406.06;;;1.42;64.46
76594;BME280;65482;50.240;14.302;2023-11-22T06:27:37;100399.50;;;1.34;63.75
76594;BME280;65482;50.240;14.302;2023-11-22T06:30:03;100401.34;;;1.32;63.60
76594;BME280;65482;50.240;14.302;2023-11-22T06:32:29;100408.38;;;1.30;63.52
76594;BME280;65482;50.240;14.302;2023-11-22T06:34:54;100409.91;;;1.34;64.19
76594;BME280;65482;50.240;14.302;2023-11-22T06:37:20;100396.00;;;1.35;64.00
76594;BME280;65482;50.240;14.302;2023-11-22T06:39:46;100396.91;;;1.34;63.52
76594;BME280;65482;50.240;14.302;2023-11-22T06:42:16;100393.22;;;1.38;63.47
76594;BME280;65482;50.240;14.302;2023-11-22T06:45:39;100389.75;;;1.22;64.60
76594;BME280;65482;50.240;14.302;2023-11-22T06:48:41;100391.25;;;1.26;64.31
76594;BME280;65482;50.240;14.302;2023-11-22T06:51:17;100399.88;;;1.27;64.29
76594;BME280;65482;50.240;14.302;2023-11-22T06:53:49;100398.44;;;1.21;64.30
76594;BME280;65482;50.240;14.302;2023-11-22T06:56:17;100409.53;;;1.25;64.51
76594;BME280;65482;50.240;14.302;2023-11-22T06:58:43;100419.38;;;1.35;64.68
76594;BME280;65482;50.240;14.302;2023-11-22T07:01:09;100425.69;;;1.47;64.71
76594;BME280;65482;50.240;14.302;2023-11-22T07:03:36;100422.00;;;1.35;64.40
76594;BME280;65482;50.240;14.302;2023-11-22T07:06:03;100433.38;;;1.33;64.76
76594;BME280;65482;50.240;14.302;2023-11-22T07:08:29;100442.09;;;1.32;65.13
76594;BME280;65482;50.240;14.302;2023-11-22T07:10:56;100450.88;;;1.29;64.83
76594;BME280;65482;50.240;14.302;2023-11-22T07:13:24;100463.09;;;1.27;64.92
76594;BME280;65482;50.240;14.302;2023-11-22T07:15:51;100469.63;;;1.18;65.13
76594;BME280;65482;50.240;14.302;2023-11-22T07:18:16;100485.06;;;1.22;64.72
76594;BME280;65482;50.240;14.302;2023-11-22T07:20:42;100496.06;;;1.27;64.98
76594;BME280;65482;50.240;14.302;2023-11-22T07:23:08;100500.34;;;1.28;65.30
76594;BME280;65482;50.240;14.302;2023-11-22T07:25:39;100504.78;;;1.26;65.41
76594;BME280;65482;50.240;14.302;2023-11-22T07:28:04;100514.81;;;1.33;65.31
76594;BME280;65482;50.240;14.302;2023-11-22T07:30:30;100519.16;;;1.33;64.96
76594;BME280;65482;50.240;14.302;2023-11-22T07:32:58;100524.28;;;1.34;65.56
76594;BME280;65482;50.240;14.302;2023-11-22T07:35:26;100522.69;;;1.32;65.31
76594;BME280;65482;50.240;14.302;2023-11-22T07:37:53;100513.34;;;1.28;65.09
76594;BME280;65482;50.240;14.302;2023-11-22T07:40:20;100517.47;;;1.32;65.27
76594;BME280;65482;50.240;14.302;2023-11-22T07:42:47;100513.25;;;1.29;65.79
76594;BME280;65482;50.240;14.302;2023-11-22T07:45:13;100497.22;;;1.38;65.88
76594;BME280;65482;50.240;14.302;2023-11-22T07:47:41;100482.38;;;1.23;64.78
76594;BME280;65482;50.240;14.302;2023-11-22T07:50:09;100486.66;;;1.24;65.63
76594;BME280;65482;50.240;14.302;2023-11-22T07:52:36;100479.19;;;1.18;65.25
76594;BME280;65482;50.240;14.302;2023-11-22T07:55:04;100478.72;;;1.10;65.01
76594;BME280;65482;50.240;14.302;2023-11-22T07:57:34;100480.47;;;1.09;65.37
76594;BME280;65482;50.240;14.302;2023-11-22T08:00:00;100494.00;;;1.16;65.50
76594;BME280;65482;50.240;14.302;2023-11-22T08:02:26;100515.09;;;1.27;65.31
76594;BME280;65482;50.240;14.302;2023-11-22T08:04:52;100523.75;;;1.28;65.24
76594;BME280;65482;50.240;14.302;2023-11-22T08:07:18;100522.69;;;1.32;65.66
76594;BME280;65482;50.240;14.302;2023-11-22T08:09:44;100534.13;;;1.45;65.67
76594;BME280;65482;50.240;14.302;2023-11-22T08:12:10;100533.47;;;1.42;65.46
76594;BME280;65482;50.240;14.302;2023-11-22T08:14:39;100531.06;;;1.54;66.36
76594;BME280;65482;50.240;14.302;2023-11-22T08:17:06;100535.06;;;1.62;64.88
76594;BME280;65482;50.240;14.302;2023-11-22T08:19:32;100532.53;;;1.43;64.92
76594;BME280;65482;50.240;14.302;2023-11-22T08:21:58;100550.34;;;1.33;64.55
76594;BME280;65482;50.240;14.302;2023-11-22T08:24:30;100553.69;;;1.35;65.24
76594;BME280;65482;50.240;14.302;2023-11-22T08:27:26;100562.19;;;1.21;64.98
76594;BME280;65482;50.240;14.302;2023-11-22T08:29:52;100562.34;;;1.18;65.32
76594;BME280;65482;50.240;14.302;2023-11-22T08:32:18;100550.88;;;1.22;65.55
76594;BME280;65482;50.240;14.302;2023-11-22T08:34:47;100554.84;;;1.29;65.38
76594;BME280;65482;50.240;14.302;2023-11-22T08:37:14;100558.31;;;1.30;65.07
76594;BME280;65482;50.240;14.302;2023-11-22T08:39:40;100565.09;;;1.32;65.10
76594;BME280;65482;50.240;14.302;2023-11-22T08:42:06;100562.19;;;1.38;64.43
76594;BME280;65482;50.240;14.302;2023-11-22T08:44:36;100570.84;;;1.39;64.82
76594;BME280;65482;50.240;14.302;2023-11-22T08:47:02;100570.44;;;1.47;64.81
76594;BME280;65482;50.240;14.302;2023-11-22T08:49:29;100564.19;;;1.51;64.69
76594;BME280;65482;50.240;14.302;2023-11-22T08:51:55;100575.72;;;1.63;64.50
76594;BME280;65482;50.240;14.302;2023-11-22T08:54:20;100575.34;;;1.70;64.19
76594;BME280;65482;50.240;14.302;2023-11-22T08:56:46;100579.53;;;1.73;63.99
76594;BME280;65482;50.240;14.302;2023-11-22T08:59:15;100588.03;;;1.76;64.32
76594;BME280;65482;50.240;14.302;2023-11-22T09:01:42;100588.28;;;1.89;64.01
76594;BME280;65482;50.240;14.302;2023-11-22T09:04:11;100592.47;;;1.92;64.60
76594;BME280;65482;50.240;14.302;2023-11-22T09:06:42;100601.81;;;1.96;63.39
76594;BME280;65482;50.240;14.302;2023-11-22T09:09:07;100599.34;;;1.93;63.35
76594;BME280;65482;50.240;14.302;2023-11-22T09:11:33;100602.88;;;1.92;63.49
76594;BME280;65482;50.240;14.302;2023-11-22T09:14:00;100596.53;;;1.97;63.94
76594;BME280;65482;50.240;14.302;2023-11-22T09:16:37;100605.63;;;1.89;64.07
76594;BME280;65482;50.240;14.302;2023-11-22T09:19:04;100604.66;;;1.91;63.69
76594;BME280;65482;50.240;14.302;2023-11-22T09:21:32;100608.47;;;1.84;63.48
76594;BME280;65482;50.240;14.302;2023-11-22T09:23:58;100617.97;;;1.85;63.73
76594;BME280;65482;50.240;14.302;2023-11-22T09:26:24;100621.41;;;2.03;63.74
76594;BME280;65482;50.240;14.302;2023-11-22T09:28:50;100621.03;;;1.76;63.39
76594;BME280;65482;50.240;14.302;2023-11-22T09:31:15;100623.09;;;1.69;63.61
76594;BME280;65482;50.240;14.302;2023-11-22T09:33:46;100634.94;;;1.75;64.26
76594;BME280;65482;50.240;14.302;2023-11-22T09:36:12;100619.50;;;1.89;63.61
76594;BME280;65482;50.240;14.302;2023-11-22T09:38:38;100630.50;;;1.94;63.93
76594;BME280;65482;50.240;14.302;2023-11-22T09:41:04;100630.97;;;1.68;63.59
76594;BME280;65482;50.240;14.302;2023-11-22T09:43:33;100631.88;;;1.67;63.91
76594;BME280;65482;50.240;14.302;2023-11-22T09:45:59;100632.50;;;1.72;63.51
76594;BME280;65482;50.240;14.302;2023-11-22T09:48:26;100640.31;;;1.72;63.70
76594;BME280;65482;50.240;14.302;2023-11-22T09:51:04;100638.41;;;1.75;64.35
76594;BME280;65482;50.240;14.302;2023-11-22T09:53:40;100641.97;;;1.73;63.53
76594;BME280;65482;50.240;14.302;2023-11-22T09:56:07;100644.75;;;1.70;63.58
76594;BME280;65482;50.240;14.302;2023-11-22T09:58:40;100640.06;;;1.76;63.72
76594;BME280;65482;50.240;14.302;2023-11-22T10:01:10;100652.00;;;1.81;63.48
76594;BME280;65482;50.240;14.302;2023-11-22T10:03:37;100643.03;;;1.69;63.26
76594;BME280;65482;50.240;14.302;2023-11-22T10:06:02;100647.94;;;1.75;63.14
76594;BME280;65482;50.240;14.302;2023-11-22T10:08:29;100656.16;;;1.67;62.66
76594;BME280;65482;50.240;14.302;2023-11-22T10:10:55;100652.84;;;1.64;62.74
76594;BME280;65482;50.240;14.302;2023-11-22T10:13:22;100657.00;;;1.68;63.14
76594;BME280;65482;50.240;14.302;2023-11-22T10:15:51;100654.84;;;1.76;63.04
76594;BME280;65482;50.240;14.302;2023-11-22T10:18:19;100662.19;;;1.85;62.79
76594;BME280;65482;50.240;14.302;2023-11-22T10:20:45;100668.25;;;1.86;62.47
76594;BME280;65482;50.240;14.302;2023-11-22T10:23:19;100675.28;;;2.01;61.60
76594;BME280;65482;50.240;14.302;2023-11-22T10:25:48;100668.59;;;2.13;61.15
76594;BME280;65482;50.240;14.302;2023-11-22T10:28:23;100673.13;;;2.09;61.36
76594;BME280;65482;50.240;14.302;2023-11-22T10:30:51;100676.25;;;2.16;61.29
76594;BME280;65482;50.240;14.302;2023-11-22T10:33:20;100677.47;;;2.09;60.70
76594;BME280;65482;50.240;14.302;2023-11-22T10:35:49;100683.81;;;2.21;60.71
76594;BME280;65482;50.240;14.302;2023-11-22T10:38:19;100689.97;;;1.85;61.86
76594;BME280;65482;50.240;14.302;2023-11-22T10:40:46;100686.38;;;1.87;61.60
76594;BME280;65482;50.240;14.302;2023-11-22T10:43:14;100681.25;;;1.86;62.00
76594;BME280;65482;50.240;14.302;2023-11-22T10:45:41;100681.47;;;1.98;61.27
76594;BME280;65482;50.240;14.302;2023-11-22T10:48:13;100674.28;;;1.86;61.75
76594;BME280;65482;50.240;14.302;2023-11-22T10:50:43;100676.75;;;1.89;62.04
76594;BME280;65482;50.240;14.302;2023-11-22T10:53:15;100678.16;;;1.95;60.95
76594;BME280;65482;50.240;14.302;2023-11-22T10:55:45;100675.44;;;1.98;61.13
76594;BME280;65482;50.240;14.302;2023-11-22T10:58:13;100677.19;;;1.97;61.32
76594;BME280;65482;50.240;14.302;2023-11-22T11:00:43;100688.56;;;1.95;61.33
76594;BME280;65482;50.240;14.302;2023-11-22T11:03:17;100676.44;;;1.95;60.92
76594;BME280;65482;50.240;14.302;2023-11-22T11:06:07;100674.59;;;1.97;60.99
76594;BME280;65482;50.240;14.302;2023-11-22T11:11:50;100664.31;;;1.94;61.13
76594;BME280;65482;50.240;14.302;2023-11-22T11:14:51;100671.06;;;1.98;60.97
76594;BME280;65482;50.240;14.302;2023-11-22T11:17:34;100666.34;;;1.89;61.01
76594;BME280;65482;50.240;14.302;2023-11-22T11:20:07;100667.41;;;1.85;61.29
76594;BME280;65482;50.240;14.302;2023-11-22T11:22:33;100663.63;;;1.91;61.13
76594;BME280;65482;50.240;14.302;2023-11-22T11:25:04;100657.53;;;1.92;60.90
76594;BME280;65482;50.240;14.302;2023-11-22T11:27:35;100656.59;;;1.93;60.81
76594;BME280;65482;50.240;14.302;2023-11-22T11:32:57;100653.22;;;2.08;61.22
76594;BME280;65482;50.240;14.302;2023-11-22T11:35:43;100665.66;;;2.03;60.49
76594;BME280;65482;50.240;14.302;2023-11-22T11:38:15;100664.13;;;1.99;60.79
76594;BME280;65482;50.240;14.302;2023-11-22T11:40:45;100657.53;;;2.09;61.80
76594;BME280;65482;50.240;14.302;2023-11-22T11:43:10;100660.94;;;2.27;61.96
76594;BME280;65482;50.240;14.302;2023-11-22T11:45:39;100663.75;;;2.40;61.06
76594;BME280;65482;50.240;14.302;2023-11-22T11:48:06;100654.09;;;2.42;61.33
76594;BME280;65482;50.240;14.302;2023-11-22T11:50:33;100668.22;;;2.54;60.94
76594;BME280;65482;50.240;14.302;2023-11-22T11:52:59;100680.84;;;2.62;61.18
76594;BME280;65482;50.240;14.302;2023-11-22T11:55:26;100684.13;;;2.65;60.89
76594;BME280;65482;50.240;14.302;2023-11-22T11:57:54;100688.94;;;2.73;60.06
76594;BME280;65482;50.240;14.302;2023-11-22T12:00:20;100695.38;;;2.66;60.31
76594;BME280;65482;50.240;14.302;2023-11-22T12:02:49;100696.22;;;2.66;60.62
76594;BME280;65482;50.240;14.302;2023-11-22T12:05:14;100697.09;;;2.67;60.36
76594;BME280;65482;50.240;14.302;2023-11-22T12:07:40;100699.38;;;2.73;60.70
76594;BME280;65482;50.240;14.302;2023-11-22T12:10:06;100695.69;;;2.77;60.32
76594;BME280;65482;50.240;14.302;2023-11-22T12:12:33;100703.50;;;2.77;60.39
76594;BME280;65482;50.240;14.302;2023-11-22T12:14:59;100704.25;;;2.79;60.04
76594;BME280;65482;50.240;14.302;2023-11-22T12:17:26;100706.84;;;2.79;60.29
76594;BME280;65482;50.240;14.302;2023-11-22T12:19:53;100703.66;;;2.74;59.69
76594;BME280;65482;50.240;14.302;2023-11-22T12:22:19;100722.56;;;2.77;59.74
76594;BME280;65482;50.240;14.302;2023-11-22T12:24:46;100721.13;;;2.72;59.74
76594;BME280;65482;50.240;14.302;2023-11-22T12:27:11;100721.38;;;2.67;60.27
76594;BME280;65482;50.240;14.302;2023-11-22T12:29:39;100721.38;;;2.67;60.45
76594;BME280;65482;50.240;14.302;2023-11-22T12:32:07;100724.66;;;2.71;60.47
76594;BME280;65482;50.240;14.302;2023-11-22T12:34:32;100722.28;;;2.66;60.18
76594;BME280;65482;50.240;14.302;2023-11-22T12:36:59;100716.63;;;2.58;60.92
76594;BME280;65482;50.240;14.302;2023-11-22T12:39:25;100721.25;;;2.53;60.46
76594;BME280;65482;50.240;14.302;2023-11-22T12:41:52;100716.81;;;2.55;61.35
76594;BME280;65482;50.240;14.302;2023-11-22T12:44:18;100709.75;;;2.57;60.78
76594;BME280;65482;50.240;14.302;2023-11-22T12:46:51;100702.84;;;2.56;60.83
76594;BME280;65482;50.240;14.302;2023-11-22T12:49:27;100700.94;;;2.59;61.08
76594;BME280;65482;50.240;14.302;2023-11-22T12:51:54;100702.59;;;2.61;60.62
76594;BME280;65482;50.240;14.302;2023-11-22T12:54:20;100697.72;;;2.54;60.51
76594;BME280;65482;50.240;14.302;2023-11-22T12:56:50;100689.91;;;2.54;60.57
76594;BME280;65482;50.240;14.302;2023-11-22T12:59:16;100681.94;;;2.57;61.10